sensor_id;sensor_type;location;lat;lon;timestamp;P1;durP1;ratioP1;P2;durP2;ratioP2
31262;SDS011;17892;52.080;9.006;2023-05-10T00:01:23;5.00;;;3.25;;
31262;SDS011;17892;52.080;9.006;2023-05-10T00:03:48;5.22;;;3.08;;
31262;SDS011;17892;52.080;9.006;2023-05-10T00:06:14;4.20;;;2.55;;
31262;SDS011;17892;52.080;9.006;2023-05-10T00:08:40;4.15;;;2.70;;
31262;SDS011;17892;52.080;9.006;2023-05-10T00:11:06;4.53;;;2.80;;
31262;SDS011;17892;52.080;9.006;2023-05-10T00:13:31;4.72;;;2.67;;
31262;SDS011;17892;52.080;9.006;2023-05-10T00:15:57;5.07;;;3.25;;
31262;SDS011;17892;52.080;9.006;2023-05-10T00:18:23;5.03;;;3.20;;
31262;SDS011;17892;52.080;9.006;2023-05-10T00:20:49;4.88;;;2.97;;
31262;SDS011;17892;52.080;9.006;2023-05-10T00:23:14;4.38;;;2.50;;
31262;SDS011;17892;52.080;9.006;2023-05-10T00:25:40;4.43;;;2.42;;
31262;SDS011;17892;52.080;9.006;2023-05-10T00:28:06;3.95;;;2.33;;
31262;SDS011;17892;52.080;9.006;2023-05-10T00:30:31;4.13;;;2.67;;
31262;SDS011;17892;52.080;9.006;2023-05-10T00:32:57;5.20;;;3.20;;
31262;SDS011;17892;52.080;9.006;2023-05-10T00:35:23;5.00;;;3.30;;
31262;SDS011;17892;52.080;9.006;2023-05-10T00:37:49;5.28;;;3.08;;
31262;SDS011;17892;52.080;9.006;2023-05-10T00:40:14;5.38;;;2.88;;
31262;SDS011;17892;52.080;9.006;2023-05-10T00:42:40;4.13;;;2.80;;
31262;SDS011;17892;52.080;9.006;2023-05-10T00:45:06;5.35;;;3.42;;
31262;SDS011;17892;52.080;9.006;2023-05-10T00:47:32;4.55;;;2.90;;
31262;SDS011;17892;52.080;9.006;2023-05-10T00:49:59;4.50;;;2.72;;
31262;SDS011;17892;52.080;9.006;2023-05-10T00:52:25;4.97;;;2.90;;
31262;SDS011;17892;52.080;9.006;2023-05-10T00:54:55;5.88;;;3.15;;
31262;SDS011;17892;52.080;9.006;2023-05-10T00:57:21;5.30;;;3.17;;
31262;SDS011;17892;52.080;9.006;2023-05-10T00:59:47;4.10;;;2.50;;
31262;SDS011;17892;52.080;9.006;2023-05-10T01:02:13;4.82;;;3.38;;
31262;SDS011;17892;52.080;9.006;2023-05-10T01:04:39;5.28;;;3.03;;
31262;SDS011;17892;52.080;9.006;2023-05-10T01:07:05;4.47;;;2.80;;
31262;SDS011;17892;52.080;9.006;2023-05-10T01:09:31;5.00;;;2.95;;
31262;SDS011;17892;52.080;9.006;2023-05-10T01:11:58;4.38;;;2.78;;
31262;SDS011;17892;52.080;9.006;2023-05-10T01:14:24;4.28;;;2.75;;
31262;SDS011;17892;52.080;9.006;2023-05-10T01:16:51;5.13;;;3.20;;
31262;SDS011;17892;52.080;9.006;2023-05-10T01:19:28;5.28;;;2.85;;
31262;SDS011;17892;52.080;9.006;2023-05-10T01:34:25;5.10;;;3.25;;
31262;SDS011;17892;52.080;9.006;2023-05-10T01:37:05;4.88;;;3.20;;
31262;SDS011;17892;52.080;9.006;2023-05-10T01:39:47;5.18;;;3.38;;
31262;SDS011;17892;52.080;9.006;2023-05-10T01:42:21;5.93;;;3.20;;
31262;SDS011;17892;52.080;9.006;2023-05-10T01:47:40;4.45;;;2.83;;
31262;SDS011;17892;52.080;9.006;2023-05-10T01:50:15;4.18;;;2.88;;
31262;SDS011;17892;52.080;9.006;2023-05-10T01:52:47;5.03;;;2.95;;
31262;SDS011;17892;52.080;9.006;2023-05-10T01:55:18;6.05;;;3.75;;
31262;SDS011;17892;52.080;9.006;2023-05-10T01:57:46;5.13;;;3.33;;
31262;SDS011;17892;52.080;9.006;2023-05-10T02:00:16;4.97;;;3.05;;
31262;SDS011;17892;52.080;9.006;2023-05-10T02:02:45;5.07;;;3.13;;
31262;SDS011;17892;52.080;9.006;2023-05-10T02:05:12;5.18;;;2.95;;
31262;SDS011;17892;52.080;9.006;2023-05-10T02:07:40;5.97;;;3.80;;
31262;SDS011;17892;52.080;9.006;2023-05-10T02:10:07;6.32;;;3.88;;
31262;SDS011;17892;52.080;9.006;2023-05-10T02:12:36;6.50;;;3.65;;
31262;SDS011;17892;52.080;9.006;2023-05-10T02:15:06;6.60;;;3.83;;
31262;SDS011;17892;52.080;9.006;2023-05-10T02:17:33;4.72;;;2.95;;
31262;SDS011;17892;52.080;9.006;2023-05-10T02:20:01;5.40;;;3.03;;
31262;SDS011;17892;52.080;9.006;2023-05-10T02:22:28;4.93;;;3.17;;
31262;SDS011;17892;52.080;9.006;2023-05-10T02:24:55;5.20;;;3.35;;
31262;SDS011;17892;52.080;9.006;2023-05-10T02:27:23;6.20;;;3.15;;
31262;SDS011;17892;52.080;9.006;2023-05-10T02:29:50;4.63;;;2.90;;
31262;SDS011;17892;52.080;9.006;2023-05-10T02:32:17;4.82;;;2.75;;
31262;SDS011;17892;52.080;9.006;2023-05-10T02:34:44;5.10;;;3.00;;
31262;SDS011;17892;52.080;9.006;2023-05-10T02:37:11;5.57;;;2.88;;
31262;SDS011;17892;52.080;9.006;2023-05-10T02:39:40;5.10;;;3.38;;
31262;SDS011;17892;52.080;9.006;2023-05-10T02:42:09;4.82;;;3.38;;
31262;SDS011;17892;52.080;9.006;2023-05-10T02:44:41;4.78;;;2.88;;
31262;SDS011;17892;52.080;9.006;2023-05-10T02:47:08;4.55;;;2.83;;
31262;SDS011;17892;52.080;9.006;2023-05-10T02:49:34;5.28;;;3.40;;
31262;SDS011;17892;52.080;9.006;2023-05-10T02:52:00;6.15;;;4.00;;
31262;SDS011;17892;52.080;9.006;2023-05-10T02:54:30;6.15;;;3.88;;
31262;SDS011;17892;52.080;9.006;2023-05-10T02:59:31;7.45;;;4.68;;
31262;SDS011;17892;52.080;9.006;2023-05-10T03:01:57;6.57;;;3.95;;
31262;SDS011;17892;52.080;9.006;2023-05-10T03:04:25;7.20;;;4.53;;
31262;SDS011;17892;52.080;9.006;2023-05-10T03:06:51;6.53;;;4.50;;
31262;SDS011;17892;52.080;9.006;2023-05-10T03:09:17;6.72;;;4.13;;
31262;SDS011;17892;52.080;9.006;2023-05-10T03:14:21;6.30;;;3.90;;
31262;SDS011;17892;52.080;9.006;2023-05-10T03:17:10;6.28;;;3.83;;
31262;SDS011;17892;52.080;9.006;2023-05-10T03:22:24;3.33;;;1.63;;
31262;SDS011;17892;52.080;9.006;2023-05-10T03:25:06;1.90;;;0.70;;
31262;SDS011;17892;52.080;9.006;2023-05-10T03:27:34;1.90;;;0.80;;
31262;SDS011;17892;52.080;9.006;2023-05-10T03:30:02;1.85;;;0.80;;
31262;SDS011;17892;52.080;9.006;2023-05-10T03:32:28;1.92;;;0.80;;
31262;SDS011;17892;52.080;9.006;2023-05-10T03:34:56;2.00;;;0.70;;
31262;SDS011;17892;52.080;9.006;2023-05-10T03:37:22;1.90;;;0.60;;
31262;SDS011;17892;52.080;9.006;2023-05-10T03:39:48;1.38;;;0.60;;
31262;SDS011;17892;52.080;9.006;2023-05-10T03:42:13;1.00;;;0.50;;
31262;SDS011;17892;52.080;9.006;2023-05-10T03:44:39;1.70;;;0.75;;
31262;SDS011;17892;52.080;9.006;2023-05-10T03:47:05;1.60;;;0.60;;
31262;SDS011;17892;52.080;9.006;2023-05-10T03:49:31;1.70;;;0.68;;
31262;SDS011;17892;52.080;9.006;2023-05-10T03:51:57;1.25;;;0.55;;
31262;SDS011;17892;52.080;9.006;2023-05-10T03:54:22;1.60;;;0.70;;
31262;SDS011;17892;52.080;9.006;2023-05-10T03:56:48;2.53;;;0.90;;
31262;SDS011;17892;52.080;9.006;2023-05-10T03:59:14;1.50;;;0.60;;
31262;SDS011;17892;52.080;9.006;2023-05-10T04:01:40;1.65;;;0.68;;
31262;SDS011;17892;52.080;9.006;2023-05-10T04:04:05;2.40;;;0.85;;
31262;SDS011;17892;52.080;9.006;2023-05-10T04:06:31;1.50;;;0.60;;
31262;SDS011;17892;52.080;9.006;2023-05-10T04:08:57;1.92;;;0.90;;
31262;SDS011;17892;52.080;9.006;2023-05-10T04:11:24;1.88;;;0.77;;
31262;SDS011;17892;52.080;9.006;2023-05-10T04:13:50;1.90;;;0.70;;
31262;SDS011;17892;52.080;9.006;2023-05-10T04:16:16;1.63;;;0.85;;
31262;SDS011;17892;52.080;9.006;2023-05-10T04:18:41;1.85;;;0.98;;
31262;SDS011;17892;52.080;9.006;2023-05-10T04:21:11;1.70;;;0.80;;
31262;SDS011;17892;52.080;9.006;2023-05-10T04:23:38;2.20;;;1.00;;
31262;SDS011;17892;52.080;9.006;2023-05-10T04:26:04;2.80;;;1.50;;
31262;SDS011;17892;52.080;9.006;2023-05-10T04:28:29;3.75;;;1.92;;
31262;SDS011;17892;52.080;9.006;2023-05-10T04:31:05;3.50;;;1.90;;
31262;SDS011;17892;52.080;9.006;2023-05-10T04:33:33;3.17;;;1.77;;
31262;SDS011;17892;52.080;9.006;2023-05-10T04:36:00;3.90;;;2.00;;
31262;SDS011;17892;52.080;9.006;2023-05-10T04:38:27;2.83;;;1.42;;
31262;SDS011;17892;52.080;9.006;2023-05-10T04:40:53;3.90;;;2.08;;
31262;SDS011;17892;52.080;9.006;2023-05-10T04:43:18;3.78;;;2.00;;
31262;SDS011;17892;52.080;9.006;2023-05-10T04:45:45;3.30;;;1.83;;
31262;SDS011;17892;52.080;9.006;2023-05-10T04:48:10;3.58;;;1.95;;
31262;SDS011;17892;52.080;9.006;2023-05-10T04:50:36;3.35;;;1.95;;
31262;SDS011;17892;52.080;9.006;2023-05-10T04:53:02;3.47;;;2.03;;
31262;SDS011;17892;52.080;9.006;2023-05-10T04:55:27;2.67;;;1.38;;
31262;SDS011;17892;52.080;9.006;2023-05-10T04:57:53;3.20;;;1.67;;
31262;SDS011;17892;52.080;9.006;2023-05-10T05:00:21;3.10;;;1.60;;
31262;SDS011;17892;52.080;9.006;2023-05-10T05:02:47;3.03;;;1.38;;
31262;SDS011;17892;52.080;9.006;2023-05-10T05:05:13;3.00;;;1.40;;
31262;SDS011;17892;52.080;9.006;2023-05-10T05:07:39;2.78;;;1.40;;
31262;SDS011;17892;52.080;9.006;2023-05-10T05:10:05;3.08;;;1.60;;
31262;SDS011;17892;52.080;9.006;2023-05-10T05:12:32;2.90;;;1.38;;
31262;SDS011;17892;52.080;9.006;2023-05-10T05:14:58;2.67;;;1.38;;
31262;SDS011;17892;52.080;9.006;2023-05-10T05:17:23;2.22;;;1.00;;
31262;SDS011;17892;52.080;9.006;2023-05-10T05:19:49;2.58;;;1.05;;
31262;SDS011;17892;52.080;9.006;2023-05-10T05:22:15;2.28;;;1.17;;
31262;SDS011;17892;52.080;9.006;2023-05-10T05:24:41;2.28;;;1.08;;
31262;SDS011;17892;52.080;9.006;2023-05-10T05:27:06;1.88;;;0.80;;
31262;SDS011;17892;52.080;9.006;2023-05-10T05:29:32;1.55;;;0.73;;
31262;SDS011;17892;52.080;9.006;2023-05-10T05:31:58;1.73;;;0.68;;
31262;SDS011;17892;52.080;9.006;2023-05-10T05:34:24;0.90;;;0.40;;
31262;SDS011;17892;52.080;9.006;2023-05-10T05:36:51;0.43;;;0.20;;
31262;SDS011;17892;52.080;9.006;2023-05-10T05:39:16;0.22;;;0.10;;
31262;SDS011;17892;52.080;9.006;2023-05-10T05:41:42;0.43;;;0.10;;
31262;SDS011;17892;52.080;9.006;2023-05-10T05:44:08;0.17;;;0.10;;
31262;SDS011;17892;52.080;9.006;2023-05-10T05:46:34;0.40;;;0.10;;
31262;SDS011;17892;52.080;9.006;2023-05-10T05:48:59;0.13;;;0.10;;
31262;SDS011;17892;52.080;9.006;2023-05-10T05:51:25;0.20;;;0.10;;
31262;SDS011;17892;52.080;9.006;2023-05-10T05:53:51;0.10;;;0.10;;
31262;SDS011;17892;52.080;9.006;2023-05-10T05:56:16;0.10;;;0.10;;
31262;SDS011;17892;52.080;9.006;2023-05-10T05:58:48;0.10;;;0.00;;
31262;SDS011;17892;52.080;9.006;2023-05-10T06:01:15;0.10;;;0.10;;
31262;SDS011;17892;52.080;9.006;2023-05-10T06:03:41;0.17;;;0.10;;
31262;SDS011;17892;52.080;9.006;2023-05-10T06:06:07;0.32;;;0.20;;
31262;SDS011;17892;52.080;9.006;2023-05-10T06:08:32;0.22;;;0.10;;
31262;SDS011;17892;52.080;9.006;2023-05-10T06:10:58;1.05;;;0.20;;
31262;SDS011;17892;52.080;9.006;2023-05-10T06:13:25;1.20;;;0.20;;
31262;SDS011;17892;52.080;9.006;2023-05-10T06:15:56;0.25;;;0.15;;
31262;SDS011;17892;52.080;9.006;2023-05-10T06:18:23;0.55;;;0.20;;
31262;SDS011;17892;52.080;9.006;2023-05-10T06:20:49;0.25;;;0.13;;
31262;SDS011;17892;52.080;9.006;2023-05-10T06:23:15;0.28;;;0.17;;
31262;SDS011;17892;52.080;9.006;2023-05-10T06:25:40;0.40;;;0.20;;
31262;SDS011;17892;52.080;9.006;2023-05-10T06:28:06;0.10;;;0.10;;
31262;SDS011;17892;52.080;9.006;2023-05-10T06:30:32;0.40;;;0.30;;
31262;SDS011;17892;52.080;9.006;2023-05-10T06:32:57;0.70;;;0.40;;
31262;SDS011;17892;52.080;9.006;2023-05-10T06:35:23;1.00;;;0.50;;
31262;SDS011;17892;52.080;9.006;2023-05-10T06:37:49;0.60;;;0.40;;
31262;SDS011;17892;52.080;9.006;2023-05-10T06:40:15;0.63;;;0.35;;
31262;SDS011;17892;52.080;9.006;2023-05-10T06:42:41;0.55;;;0.40;;
31262;SDS011;17892;52.080;9.006;2023-05-10T06:45:07;0.65;;;0.40;;
31262;SDS011;17892;52.080;9.006;2023-05-10T06:47:34;0.50;;;0.38;;
31262;SDS011;17892;52.080;9.006;2023-05-10T06:49:59;1.00;;;0.40;;
31262;SDS011;17892;52.080;9.006;2023-05-10T06:52:25;0.95;;;0.40;;
31262;SDS011;17892;52.080;9.006;2023-05-10T06:54:51;0.93;;;0.60;;
31262;SDS011;17892;52.080;9.006;2023-05-10T06:57:16;0.70;;;0.40;;
31262;SDS011;17892;52.080;9.006;2023-05-10T06:59:43;0.85;;;0.38;;
31262;SDS011;17892;52.080;9.006;2023-05-10T07:02:09;0.82;;;0.40;;
31262;SDS011;17892;52.080;9.006;2023-05-10T07:04:34;0.82;;;0.40;;
31262;SDS011;17892;52.080;9.006;2023-05-10T07:07:00;1.05;;;0.32;;
31262;SDS011;17892;52.080;9.006;2023-05-10T07:09:26;0.90;;;0.40;;
31262;SDS011;17892;52.080;9.006;2023-05-10T07:11:51;0.95;;;0.40;;
31262;SDS011;17892;52.080;9.006;2023-05-10T07:14:18;1.25;;;0.60;;
31262;SDS011;17892;52.080;9.006;2023-05-10T07:16:43;1.25;;;0.60;;
31262;SDS011;17892;52.080;9.006;2023-05-10T07:19:09;1.35;;;0.50;;
31262;SDS011;17892;52.080;9.006;2023-05-10T07:21:35;1.15;;;0.57;;
31262;SDS011;17892;52.080;9.006;2023-05-10T07:24:01;1.55;;;0.50;;
31262;SDS011;17892;52.080;9.006;2023-05-10T07:26:27;1.23;;;0.50;;
31262;SDS011;17892;52.080;9.006;2023-05-10T07:28:53;1.27;;;0.40;;
31262;SDS011;17892;52.080;9.006;2023-05-10T07:31:19;1.08;;;0.45;;
31262;SDS011;17892;52.080;9.006;2023-05-10T07:33:45;1.65;;;0.40;;
31262;SDS011;17892;52.080;9.006;2023-05-10T07:36:11;0.90;;;0.50;;
31262;SDS011;17892;52.080;9.006;2023-05-10T07:38:36;1.10;;;0.40;;
31262;SDS011;17892;52.080;9.006;2023-05-10T07:41:02;1.00;;;0.43;;
31262;SDS011;17892;52.080;9.006;2023-05-10T07:43:28;1.25;;;0.50;;
31262;SDS011;17892;52.080;9.006;2023-05-10T07:45:53;1.13;;;0.50;;
31262;SDS011;17892;52.080;9.006;2023-05-10T07:48:19;1.30;;;0.47;;
31262;SDS011;17892;52.080;9.006;2023-05-10T07:50:45;1.60;;;0.70;;
31262;SDS011;17892;52.080;9.006;2023-05-10T07:53:10;1.70;;;0.57;;
31262;SDS011;17892;52.080;9.006;2023-05-10T07:55:36;1.90;;;0.80;;
31262;SDS011;17892;52.080;9.006;2023-05-10T07:58:01;1.90;;;0.57;;
31262;SDS011;17892;52.080;9.006;2023-05-10T08:00:27;1.45;;;0.70;;
31262;SDS011;17892;52.080;9.006;2023-05-10T08:02:53;2.53;;;0.60;;
31262;SDS011;17892;52.080;9.006;2023-05-10T08:05:18;2.10;;;0.60;;
31262;SDS011;17892;52.080;9.006;2023-05-10T08:07:44;2.00;;;0.70;;
31262;SDS011;17892;52.080;9.006;2023-05-10T08:10:10;2.38;;;0.73;;
31262;SDS011;17892;52.080;9.006;2023-05-10T08:12:38;2.33;;;0.70;;
31262;SDS011;17892;52.080;9.006;2023-05-10T08:15:04;2.50;;;1.00;;
31262;SDS011;17892;52.080;9.006;2023-05-10T08:17:31;2.67;;;0.85;;
31262;SDS011;17892;52.080;9.006;2023-05-10T08:19:57;3.17;;;0.90;;
31262;SDS011;17892;52.080;9.006;2023-05-10T08:22:23;1.75;;;0.73;;
31262;SDS011;17892;52.080;9.006;2023-05-10T08:24:48;1.70;;;0.68;;
31262;SDS011;17892;52.080;9.006;2023-05-10T08:27:14;2.35;;;0.70;;
31262;SDS011;17892;52.080;9.006;2023-05-10T08:29:39;2.92;;;1.33;;
31262;SDS011;17892;52.080;9.006;2023-05-10T08:32:05;3.58;;;0.90;;
31262;SDS011;17892;52.080;9.006;2023-05-10T08:34:31;4.28;;;1.38;;
31262;SDS011;17892;52.080;9.006;2023-05-10T08:36:56;3.50;;;1.30;;
31262;SDS011;17892;52.080;9.006;2023-05-10T08:39:22;4.05;;;1.17;;
31262;SDS011;17892;52.080;9.006;2023-05-10T08:41:48;2.50;;;1.10;;
31262;SDS011;17892;52.080;9.006;2023-05-10T08:44:17;4.20;;;1.15;;
31262;SDS011;17892;52.080;9.006;2023-05-10T08:46:45;2.55;;;1.00;;
31262;SDS011;17892;52.080;9.006;2023-05-10T08:49:13;2.67;;;1.15;;
31262;SDS011;17892;52.080;9.006;2023-05-10T08:51:44;2.97;;;1.20;;
31262;SDS011;17892;52.080;9.006;2023-05-10T08:54:16;3.08;;;1.02;;
31262;SDS011;17892;52.080;9.006;2023-05-10T08:56:41;2.42;;;1.50;;
31262;SDS011;17892;52.080;9.006;2023-05-10T08:59:07;5.68;;;2.00;;
31262;SDS011;17892;52.080;9.006;2023-05-10T09:01:33;2.97;;;1.40;;
31262;SDS011;17892;52.080;9.006;2023-05-10T09:04:01;3.40;;;1.45;;
31262;SDS011;17892;52.080;9.006;2023-05-10T09:06:29;2.92;;;1.25;;
31262;SDS011;17892;52.080;9.006;2023-05-10T09:08:54;2.75;;;1.58;;
31262;SDS011;17892;52.080;9.006;2023-05-10T09:11:20;4.00;;;1.60;;
31262;SDS011;17892;52.080;9.006;2023-05-10T09:13:48;3.92;;;1.58;;
31262;SDS011;17892;52.080;9.006;2023-05-10T09:16:15;3.53;;;1.85;;
31262;SDS011;17892;52.080;9.006;2023-05-10T09:18:41;4.65;;;2.15;;
31262;SDS011;17892;52.080;9.006;2023-05-10T09:21:07;3.67;;;2.03;;
31262;SDS011;17892;52.080;9.006;2023-05-10T09:23:33;4.13;;;2.08;;
31262;SDS011;17892;52.080;9.006;2023-05-10T09:26:02;5.18;;;2.42;;
31262;SDS011;17892;52.080;9.006;2023-05-10T09:28:32;4.55;;;2.25;;
31262;SDS011;17892;52.080;9.006;2023-05-10T09:31:17;4.43;;;2.58;;
31262;SDS011;17892;52.080;9.006;2023-05-10T09:33:46;4.90;;;3.05;;
31262;SDS011;17892;52.080;9.006;2023-05-10T09:36:14;4.57;;;2.50;;
31262;SDS011;17892;52.080;9.006;2023-05-10T09:38:50;5.95;;;3.08;;
31262;SDS011;17892;52.080;9.006;2023-05-10T09:41:21;6.47;;;3.42;;
31262;SDS011;17892;52.080;9.006;2023-05-10T09:43:48;5.35;;;2.83;;
31262;SDS011;17892;52.080;9.006;2023-05-10T09:46:15;5.82;;;3.20;;
31262;SDS011;17892;52.080;9.006;2023-05-10T09:48:42;5.20;;;2.58;;
31262;SDS011;17892;52.080;9.006;2023-05-10T09:51:21;9.95;;;3.20;;
31262;SDS011;17892;52.080;9.006;2023-05-10T09:54:10;5.47;;;3.05;;
31262;SDS011;17892;52.080;9.006;2023-05-10T09:56:38;4.50;;;2.45;;
31262;SDS011;17892;52.080;9.006;2023-05-10T09:59:05;4.78;;;2.90;;
31262;SDS011;17892;52.080;9.006;2023-05-10T10:01:36;4.88;;;2.70;;
31262;SDS011;17892;52.080;9.006;2023-05-10T10:04:04;5.97;;;3.13;;
31262;SDS011;17892;52.080;9.006;2023-05-10T10:06:36;5.40;;;3.22;;
31262;SDS011;17892;52.080;9.006;2023-05-10T10:09:06;6.25;;;3.42;;
31262;SDS011;17892;52.080;9.006;2023-05-10T10:11:34;6.55;;;3.80;;
31262;SDS011;17892;52.080;9.006;2023-05-10T10:14:01;7.32;;;3.70;;
31262;SDS011;17892;52.080;9.006;2023-05-10T10:16:28;5.85;;;3.08;;
31262;SDS011;17892;52.080;9.006;2023-05-10T10:18:55;6.13;;;3.45;;
31262;SDS011;17892;52.080;9.006;2023-05-10T10:21:22;6.25;;;3.55;;
31262;SDS011;17892;52.080;9.006;2023-05-10T10:23:48;6.25;;;2.90;;
31262;SDS011;17892;52.080;9.006;2023-05-10T10:26:14;5.28;;;2.40;;
31262;SDS011;17892;52.080;9.006;2023-05-10T10:28:49;4.90;;;2.65;;
31262;SDS011;17892;52.080;9.006;2023-05-10T10:31:40;5.07;;;2.15;;
31262;SDS011;17892;52.080;9.006;2023-05-10T10:34:30;4.18;;;2.00;;
31262;SDS011;17892;52.080;9.006;2023-05-10T10:36:57;3.60;;;1.75;;
31262;SDS011;17892;52.080;9.006;2023-05-10T10:39:29;4.07;;;1.90;;
31262;SDS011;17892;52.080;9.006;2023-05-10T10:41:56;4.00;;;1.77;;
31262;SDS011;17892;52.080;9.006;2023-05-10T10:55:08;4.50;;;2.08;;
31262;SDS011;17892;52.080;9.006;2023-05-10T11:02:56;5.75;;;2.72;;
31262;SDS011;17892;52.080;9.006;2023-05-10T11:05:24;5.00;;;2.80;;
31262;SDS011;17892;52.080;9.006;2023-05-10T11:10:48;6.05;;;3.50;;
31262;SDS011;17892;52.080;9.006;2023-05-10T11:13:29;6.22;;;3.50;;
31262;SDS011;17892;52.080;9.006;2023-05-10T11:18:53;6.88;;;4.07;;
31262;SDS011;17892;52.080;9.006;2023-05-10T11:21:31;8.55;;;4.93;;
31262;SDS011;17892;52.080;9.006;2023-05-10T11:23:59;7.10;;;4.28;;
31262;SDS011;17892;52.080;9.006;2023-05-10T11:26:30;5.97;;;3.45;;
31262;SDS011;17892;52.080;9.006;2023-05-10T11:28:59;6.32;;;3.72;;
31262;SDS011;17892;52.080;9.006;2023-05-10T11:31:26;6.40;;;3.78;;
31262;SDS011;17892;52.080;9.006;2023-05-10T11:33:53;6.90;;;4.30;;
31262;SDS011;17892;52.080;9.006;2023-05-10T11:38:51;7.93;;;4.35;;
31262;SDS011;17892;52.080;9.006;2023-05-10T11:41:18;5.20;;;3.08;;
31262;SDS011;17892;52.080;9.006;2023-05-10T11:43:46;5.95;;;3.40;;
31262;SDS011;17892;52.080;9.006;2023-05-10T11:46:18;5.38;;;3.17;;
31262;SDS011;17892;52.080;9.006;2023-05-10T11:48:46;4.22;;;2.72;;
31262;SDS011;17892;52.080;9.006;2023-05-10T11:51:19;4.30;;;2.70;;
31262;SDS011;17892;52.080;9.006;2023-05-10T11:53:50;5.35;;;2.85;;
31262;SDS011;17892;52.080;9.006;2023-05-10T11:56:18;4.35;;;2.78;;
31262;SDS011;17892;52.080;9.006;2023-05-10T11:58:45;3.95;;;2.38;;
31262;SDS011;17892;52.080;9.006;2023-05-10T12:01:17;5.07;;;2.90;;
31262;SDS011;17892;52.080;9.006;2023-05-10T12:03:43;5.55;;;2.50;;
31262;SDS011;17892;52.080;9.006;2023-05-10T12:06:09;4.78;;;2.72;;
31262;SDS011;17892;52.080;9.006;2023-05-10T12:08:35;4.47;;;2.38;;
31262;SDS011;17892;52.080;9.006;2023-05-10T12:11:05;4.45;;;2.75;;
31262;SDS011;17892;52.080;9.006;2023-05-10T12:13:37;4.57;;;2.55;;
31262;SDS011;17892;52.080;9.006;2023-05-10T12:18:44;3.55;;;2.17;;
31262;SDS011;17892;52.080;9.006;2023-05-10T12:21:13;6.03;;;2.53;;
31262;SDS011;17892;52.080;9.006;2023-05-10T12:23:40;4.15;;;2.25;;
31262;SDS011;17892;52.080;9.006;2023-05-10T12:26:09;3.65;;;1.85;;
31262;SDS011;17892;52.080;9.006;2023-05-10T12:28:35;4.28;;;1.83;;
31262;SDS011;17892;52.080;9.006;2023-05-10T12:31:02;3.97;;;1.80;;
31262;SDS011;17892;52.080;9.006;2023-05-10T12:33:35;3.53;;;1.95;;
31262;SDS011;17892;52.080;9.006;2023-05-10T12:36:03;4.00;;;1.67;;
31262;SDS011;17892;52.080;9.006;2023-05-10T12:38:32;5.03;;;1.85;;
31262;SDS011;17892;52.080;9.006;2023-05-10T12:41:03;3.03;;;1.92;;
31262;SDS011;17892;52.080;9.006;2023-05-10T12:43:31;3.50;;;1.70;;
31262;SDS011;17892;52.080;9.006;2023-05-10T12:45:57;5.28;;;2.10;;
31262;SDS011;17892;52.080;9.006;2023-05-10T12:48:23;4.25;;;2.03;;
31262;SDS011;17892;52.080;9.006;2023-05-10T12:50:49;4.63;;;2.03;;
31262;SDS011;17892;52.080;9.006;2023-05-10T12:53:15;4.70;;;1.70;;
31262;SDS011;17892;52.080;9.006;2023-05-10T12:55:42;3.50;;;1.58;;
31262;SDS011;17892;52.080;9.006;2023-05-10T12:58:08;4.22;;;2.13;;
31262;SDS011;17892;52.080;9.006;2023-05-10T13:00:34;3.60;;;1.48;;
31262;SDS011;17892;52.080;9.006;2023-05-10T13:03:00;3.60;;;1.60;;
31262;SDS011;17892;52.080;9.006;2023-05-10T13:05:25;3.30;;;1.60;;
31262;SDS011;17892;52.080;9.006;2023-05-10T13:07:51;4.28;;;1.65;;
31262;SDS011;17892;52.080;9.006;2023-05-10T13:10:17;4.90;;;1.77;;
31262;SDS011;17892;52.080;9.006;2023-05-10T13:12:42;3.17;;;1.60;;
31262;SDS011;17892;52.080;9.006;2023-05-10T13:15:08;2.95;;;1.38;;
31262;SDS011;17892;52.080;9.006;2023-05-10T13:17:34;3.50;;;2.00;;
31262;SDS011;17892;52.080;9.006;2023-05-10T13:19:59;3.20;;;1.98;;
31262;SDS011;17892;52.080;9.006;2023-05-10T13:22:25;7.22;;;2.42;;
31262;SDS011;17892;52.080;9.006;2023-05-10T13:24:51;4.03;;;2.22;;
31262;SDS011;17892;52.080;9.006;2023-05-10T13:27:17;4.30;;;2.08;;
31262;SDS011;17892;52.080;9.006;2023-05-10T13:29:42;5.75;;;2.22;;
31262;SDS011;17892;52.080;9.006;2023-05-10T13:32:08;5.63;;;2.40;;
31262;SDS011;17892;52.080;9.006;2023-05-10T13:34:33;4.07;;;2.33;;
31262;SDS011;17892;52.080;9.006;2023-05-10T13:37:00;4.38;;;2.17;;
31262;SDS011;17892;52.080;9.006;2023-05-10T13:39:26;3.60;;;1.95;;
31262;SDS011;17892;52.080;9.006;2023-05-10T13:41:52;5.35;;;2.05;;
31262;SDS011;17892;52.080;9.006;2023-05-10T13:44:18;4.30;;;1.88;;
31262;SDS011;17892;52.080;9.006;2023-05-10T13:46:45;3.92;;;1.90;;
31262;SDS011;17892;52.080;9.006;2023-05-10T13:49:11;5.50;;;1.95;;
31262;SDS011;17892;52.080;9.006;2023-05-10T13:51:37;3.35;;;1.58;;
31262;SDS011;17892;52.080;9.006;2023-05-10T13:54:02;3.28;;;1.67;;
31262;SDS011;17892;52.080;9.006;2023-05-10T13:56:28;3.70;;;1.90;;
31262;SDS011;17892;52.080;9.006;2023-05-10T13:58:54;4.38;;;1.70;;
31262;SDS011;17892;52.080;9.006;2023-05-10T14:01:22;4.38;;;2.08;;
31262;SDS011;17892;52.080;9.006;2023-05-10T14:03:48;4.38;;;2.00;;
31262;SDS011;17892;52.080;9.006;2023-05-10T14:06:13;4.25;;;1.80;;
31262;SDS011;17892;52.080;9.006;2023-05-10T14:08:39;3.70;;;1.83;;
31262;SDS011;17892;52.080;9.006;2023-05-10T14:11:05;3.05;;;1.75;;
31262;SDS011;17892;52.080;9.006;2023-05-10T14:13:30;3.35;;;2.03;;
31262;SDS011;17892;52.080;9.006;2023-05-10T14:15:56;4.38;;;1.98;;
31262;SDS011;17892;52.080;9.006;2023-05-10T14:18:23;4.45;;;2.00;;
31262;SDS011;17892;52.080;9.006;2023-05-10T14:20:49;4.57;;;2.42;;
31262;SDS011;17892;52.080;9.006;2023-05-10T14:23:15;3.47;;;1.90;;
31262;SDS011;17892;52.080;9.006;2023-05-10T14:25:40;4.10;;;2.15;;
31262;SDS011;17892;52.080;9.006;2023-05-10T14:28:06;4.30;;;2.33;;
31262;SDS011;17892;52.080;9.006;2023-05-10T14:30:32;4.55;;;2.22;;
31262;SDS011;17892;52.080;9.006;2023-05-10T14:32:59;4.78;;;2.22;;
31262;SDS011;17892;52.080;9.006;2023-05-10T14:35:27;4.65;;;2.42;;
31262;SDS011;17892;52.080;9.006;2023-05-10T14:37:56;3.83;;;2.50;;
31262;SDS011;17892;52.080;9.006;2023-05-10T14:40:22;4.47;;;2.38;;
31262;SDS011;17892;52.080;9.006;2023-05-10T14:42:49;4.13;;;1.90;;
31262;SDS011;17892;52.080;9.006;2023-05-10T14:45:15;3.22;;;1.70;;
31262;SDS011;17892;52.080;9.006;2023-05-10T14:47:41;4.15;;;1.95;;
31262;SDS011;17892;52.080;9.006;2023-05-10T14:50:07;5.28;;;2.60;;
31262;SDS011;17892;52.080;9.006;2023-05-10T14:52:33;4.43;;;2.40;;
31262;SDS011;17892;52.080;9.006;2023-05-10T14:54:58;4.38;;;2.15;;
31262;SDS011;17892;52.080;9.006;2023-05-10T14:57:26;3.53;;;1.98;;
31262;SDS011;17892;52.080;9.006;2023-05-10T14:59:54;3.90;;;2.00;;
31262;SDS011;17892;52.080;9.006;2023-05-10T15:02:21;4.28;;;2.08;;
31262;SDS011;17892;52.080;9.006;2023-05-10T15:04:47;3.80;;;1.80;;
31262;SDS011;17892;52.080;9.006;2023-05-10T15:07:12;5.07;;;1.95;;
31262;SDS011;17892;52.080;9.006;2023-05-10T15:09:40;3.80;;;1.70;;
31262;SDS011;17892;52.080;9.006;2023-05-10T15:12:06;4.13;;;1.73;;
31262;SDS011;17892;52.080;9.006;2023-05-10T15:14:32;4.78;;;2.50;;
31262;SDS011;17892;52.080;9.006;2023-05-10T15:16:57;4.80;;;2.30;;
31262;SDS011;17892;52.080;9.006;2023-05-10T15:19:24;4.15;;;2.17;;
31262;SDS011;17892;52.080;9.006;2023-05-10T15:21:49;3.92;;;1.83;;
31262;SDS011;17892;52.080;9.006;2023-05-10T15:24:15;3.70;;;1.75;;
31262;SDS011;17892;52.080;9.006;2023-05-10T15:26:41;3.58;;;2.17;;
31262;SDS011;17892;52.080;9.006;2023-05-10T15:29:06;4.47;;;1.88;;
31262;SDS011;17892;52.080;9.006;2023-05-10T15:31:32;3.28;;;1.63;;
31262;SDS011;17892;52.080;9.006;2023-05-10T15:34:01;4.20;;;1.70;;
31262;SDS011;17892;52.080;9.006;2023-05-10T15:36:27;3.80;;;1.80;;
31262;SDS011;17892;52.080;9.006;2023-05-10T15:38:53;3.47;;;1.60;;